Time;durP1;ratioP1;P1;durP2;ratioP2;P2;SDS_P1;SDS_P2;PMS_P1;PMS_P2;Temp;Humidity;BMP_temperature;BMP_pressure;BME280_temperature;BME280_humidity;BME280_pressure;Samples;Min_cycle;Max_cycle;Signal;HPM_P1;HPM_P2
2021/10/17 00:00:16;;;;;;;19.17;14.27;;;7.80;99.90;;;;;;5086441;28;20421;-51
2021/10/17 00:02:42;;;;;;;24.33;18.80;;;7.80;99.90;;;;;;5085721;28;20704;-53
2021/10/17 00:05:11;;;;;;;24.30;20.07;;;7.80;99.90;;;;;;5086851;28;20508;-59
2021/10/17 00:07:37;;;;;;;24.30;21.03;;;7.80;99.90;;;;;;5084822;28;21256;-53
2021/10/17 00:10:05;;;;;;;23.70;19.30;;;7.80;99.90;;;;;;5083731;28;20435;-50
2021/10/17 00:12:31;;;;;;;25.13;18.87;;;7.80;99.90;;;;;;5082524;28;20458;-50
2021/10/17 00:14:57;;;;;;;21.87;18.03;;;7.80;99.90;;;;;;5072426;28;20481;-52
2021/10/17 00:17:22;;;;;;;22.23;18.30;;;7.80;99.90;;;;;;5086541;28;20579;-51
2021/10/17 00:19:48;;;;;;;19.90;17.80;;;7.80;99.90;;;;;;5086235;28;20185;-49
2021/10/17 00:22:13;;;;;;;24.87;17.43;;;7.80;99.90;;;;;;5088038;28;20177;-53
2021/10/17 00:24:39;;;;;;;21.10;17.20;;;7.70;99.90;;;;;;5086438;28;20510;-52
2021/10/17 00:27:04;;;;;;;20.03;16.60;;;7.70;99.90;;;;;;5087763;28;20544;-49
2021/10/17 00:29:30;;;;;;;20.33;16.13;;;7.70;99.90;;;;;;5087958;28;20208;-50
2021/10/17 00:31:55;;;;;;;21.87;15.87;;;7.80;99.90;;;;;;5077967;28;20208;-50
2021/10/17 00:34:21;;;;;;;17.53;15.37;;;7.80;99.90;;;;;;5088052;28;20181;-50
2021/10/17 00:36:47;;;;;;;20.13;15.30;;;7.80;99.90;;;;;;5087690;28;20264;-51
2021/10/17 00:39:13;;;;;;;23.23;15.83;;;7.80;99.90;;;;;;5085839;28;20246;-51
2021/10/17 00:41:39;;;;;;;20.17;15.07;;;7.80;99.90;;;;;;5085301;28;20430;-48
2021/10/17 00:44:05;;;;;;;18.27;13.37;;;7.80;99.90;;;;;;5086974;28;20193;-59
2021/10/17 00:46:31;;;;;;;20.83;14.77;;;7.70;99.90;;;;;;5085808;28;20434;-48
2021/10/17 00:48:57;;;;;;;19.07;14.07;;;7.70;99.90;;;;;;5082436;28;20445;-49
2021/10/17 00:51:22;;;;;;;18.80;14.07;;;7.80;99.90;;;;;;5088881;28;21015;-53
2021/10/17 00:53:48;;;;;;;16.10;13.83;;;7.70;99.90;;;;;;5086760;28;21102;-49
2021/10/17 00:56:14;;;;;;;16.80;14.07;;;7.70;99.90;;;;;;5088077;28;20815;-48
2021/10/17 00:58:40;;;;;;;17.20;13.50;;;7.70;99.90;;;;;;5091461;28;20519;-51
2021/10/17 01:01:05;;;;;;;20.10;13.23;;;7.70;99.90;;;;;;5086851;28;20177;-49
2021/10/17 01:03:31;;;;;;;15.80;13.43;;;7.70;99.90;;;;;;5090753;28;20236;-47
2021/10/17 01:05:56;;;;;;;15.30;12.77;;;7.70;99.90;;;;;;5091184;28;20266;-53
2021/10/17 01:08:23;;;;;;;19.67;12.90;;;7.70;99.90;;;;;;5090406;28;20196;-51
2021/10/17 01:10:57;;;;;;;15.43;12.57;;;7.60;99.90;;;;;;5091142;28;20591;-50
2021/10/17 01:13:24;;;;;;;16.33;12.43;;;7.60;99.90;;;;;;5091354;28;20519;-54
2021/10/17 01:15:55;;;;;;;16.53;12.50;;;7.60;99.90;;;;;;5088739;28;20501;-49
2021/10/17 01:18:22;;;;;;;15.37;12.03;;;7.50;99.90;;;;;;5090990;28;20434;-51
2021/10/17 01:20:48;;;;;;;17.00;12.83;;;7.60;99.90;;;;;;5088680;28;20480;-49
2021/10/17 01:23:16;;;;;;;17.23;13.00;;;7.60;99.90;;;;;;5090367;28;20469;-51
2021/10/17 01:25:42;;;;;;;17.30;13.03;;;7.50;99.90;;;;;;5090562;28;20453;-49
2021/10/17 01:28:07;;;;;;;14.87;11.90;;;7.60;99.90;;;;;;5090392;28;20434;-55
2021/10/17 01:30:33;;;;;;;15.70;12.63;;;7.60;99.90;;;;;;5089236;28;20434;-51
2021/10/17 01:32:59;;;;;;;14.70;11.80;;;7.60;99.90;;;;;;5080748;28;20193;-49
2021/10/17 01:35:26;;;;;;;17.23;12.40;;;7.60;99.90;;;;;;5082694;28;20408;-51
2021/10/17 01:37:51;;;;;;;15.53;11.70;;;7.60;99.90;;;;;;5088649;28;20523;-52
2021/10/17 01:40:18;;;;;;;13.90;12.47;;;7.60;99.90;;;;;;5089326;28;20537;-50
2021/10/17 01:42:44;;;;;;;16.80;13.37;;;7.60;99.90;;;;;;5089502;28;20510;-49
2021/10/17 01:45:10;;;;;;;15.53;12.57;;;7.60;99.90;;;;;;5080293;28;20438;-48
2021/10/17 01:47:35;;;;;;;16.70;12.07;;;7.60;99.90;;;;;;5084164;28;20642;-48
2021/10/17 01:50:02;;;;;;;14.77;12.10;;;7.60;99.90;;;;;;5088391;28;20911;-53
2021/10/17 01:52:27;;;;;;;17.10;13.27;;;7.60;99.90;;;;;;5090661;28;20204;-55
2021/10/17 01:54:53;;;;;;;17.60;11.70;;;7.60;99.90;;;;;;5086883;28;20462;-50
2021/10/17 01:57:18;;;;;;;16.27;13.07;;;7.70;99.90;;;;;;5087391;28;20184;-51
2021/10/17 01:59:44;;;;;;;15.20;11.90;;;7.60;99.90;;;;;;5089442;28;20760;-51
2021/10/17 02:02:10;;;;;;;14.17;11.47;;;7.60;99.90;;;;;;5089745;28;20213;-50
2021/10/17 02:04:35;;;;;;;18.23;12.33;;;7.60;99.90;;;;;;5090314;28;20173;-51
2021/10/17 02:07:01;;;;;;;15.67;12.90;;;7.60;99.90;;;;;;5089242;28;20180;-54
2021/10/17 02:09:26;;;;;;;18.10;12.93;;;7.60;99.90;;;;;;5085252;28;20181;-50
2021/10/17 02:11:52;;;;;;;22.20;13.60;;;7.60;99.90;;;;;;5085437;28;20185;-50
2021/10/17 02:14:17;;;;;;;17.87;13.67;;;7.60;99.90;;;;;;5075554;28;20256;-48
2021/10/17 02:16:43;;;;;;;17.23;13.73;;;7.60;99.90;;;;;;5089865;28;20173;-52
2021/10/17 02:19:09;;;;;;;14.07;12.57;;;7.60;99.90;;;;;;5088172;28;20235;-50
2021/10/17 02:21:34;;;;;;;18.00;14.20;;;7.60;99.90;;;;;;5090889;28;20486;-48
2021/10/17 02:24:00;;;;;;;17.20;12.90;;;7.60;99.90;;;;;;5090335;28;20303;-52
2021/10/17 02:26:26;;;;;;;16.13;12.07;;;7.60;99.90;;;;;;5088476;28;20188;-49
2021/10/17 02:28:51;;;;;;;18.00;13.70;;;7.60;99.90;;;;;;5087334;28;20208;-51
2021/10/17 02:31:17;;;;;;;16.83;14.60;;;7.60;99.90;;;;;;5090363;28;20189;-52
2021/10/17 02:33:42;;;;;;;16.67;14.13;;;7.60;99.90;;;;;;5089695;28;22148;-49
2021/10/17 02:36:08;;;;;;;15.70;14.00;;;7.60;99.90;;;;;;5089132;28;20710;-51
2021/10/17 02:38:33;;;;;;;17.90;14.17;;;7.60;99.90;;;;;;5082976;28;20572;-47
2021/10/17 02:40:59;;;;;;;20.57;14.83;;;7.60;99.90;;;;;;5089559;28;20910;-51
2021/10/17 02:43:25;;;;;;;19.40;14.67;;;7.60;99.90;;;;;;5088419;28;20632;-51
2021/10/17 02:45:50;;;;;;;20.00;14.10;;;7.60;99.90;;;;;;5087487;28;20960;-50
2021/10/17 02:48:16;;;;;;;16.63;13.50;;;7.70;99.90;;;;;;5090272;28;20215;-55
2021/10/17 02:50:41;;;;;;;19.50;14.20;;;7.70;99.90;;;;;;5089847;28;20285;-47
2021/10/17 02:53:07;;;;;;;16.33;13.50;;;7.70;99.90;;;;;;5090271;28;20288;-53
2021/10/17 02:55:32;;;;;;;17.20;13.70;;;7.70;99.90;;;;;;5090650;28;20650;-51
2021/10/17 02:57:58;;;;;;;19.73;13.70;;;7.70;99.90;;;;;;5089891;28;20272;-50
2021/10/17 03:00:23;;;;;;;16.20;13.13;;;7.70;99.90;;;;;;5091168;28;20189;-47
2021/10/17 03:02:49;;;;;;;15.80;12.97;;;7.70;99.90;;;;;;5091267;28;20548;-47
2021/10/17 03:05:15;;;;;;;16.20;13.00;;;7.70;99.90;;;;;;5090058;28;20239;-51
2021/10/17 03:07:40;;;;;;;15.70;13.07;;;7.70;99.90;;;;;;5085726;28;20234;-49
2021/10/17 03:10:08;;;;;;;16.70;13.00;;;7.70;99.90;;;;;;5090215;28;20184;-49
2021/10/17 03:12:33;;;;;;;19.70;12.30;;;7.80;99.90;;;;;;5089489;28;20287;-48
2021/10/17 03:14:59;;;;;;;13.00;11.60;;;7.80;99.90;;;;;;5091296;28;20523;-51
2021/10/17 03:17:26;;;;;;;14.93;12.40;;;7.80;99.90;;;;;;5090992;28;20177;-52
2021/10/17 03:19:51;;;;;;;15.37;11.60;;;7.80;99.90;;;;;;5088792;28;20267;-48
2021/10/17 03:22:17;;;;;;;15.90;11.97;;;7.80;99.90;;;;;;5090481;28;20530;-53
2021/10/17 03:24:42;;;;;;;13.87;11.67;;;7.80;99.90;;;;;;5088891;28;20189;-50
2021/10/17 03:27:08;;;;;;;15.30;11.70;;;7.80;99.90;;;;;;5089148;28;20184;-48
2021/10/17 03:29:34;;;;;;;14.53;11.63;;;7.80;99.90;;;;;;5090717;28;20633;-47
2021/10/17 03:31:59;;;;;;;15.93;11.90;;;7.80;99.90;;;;;;5088577;28;20209;-50
2021/10/17 03:34:25;;;;;;;18.43;12.60;;;7.70;99.90;;;;;;5089393;28;20275;-48
2021/10/17 03:36:50;;;;;;;13.00;10.90;;;7.70;99.90;;;;;;5089676;28;20180;-51
2021/10/17 03:39:16;;;;;;;16.73;12.37;;;7.80;99.90;;;;;;5090571;28;20991;-48
2021/10/17 03:41:41;;;;;;;16.00;12.07;;;7.80;99.90;;;;;;5090627;28;20537;-51
2021/10/17 03:44:07;;;;;;;14.63;11.40;;;7.80;99.90;;;;;;5085123;28;20538;-49
2021/10/17 03:46:32;;;;;;;12.70;11.30;;;7.80;99.90;;;;;;5089917;28;20199;-50
2021/10/17 03:48:58;;;;;;;15.87;11.30;;;7.80;99.90;;;;;;5086954;28;20624;-51
2021/10/17 03:51:24;;;;;;;13.90;11.07;;;7.90;99.90;;;;;;5086978;28;20303;-48
2021/10/17 03:53:49;;;;;;;15.60;11.40;;;7.90;99.90;;;;;;5088145;28;20211;-51
2021/10/17 03:56:15;;;;;;;16.00;11.00;;;7.70;99.90;;;;;;5087031;28;20226;-50
2021/10/17 03:58:40;;;;;;;14.93;11.23;;;7.70;99.90;;;;;;5087251;28;20181;-51
2021/10/17 04:01:06;;;;;;;14.20;11.10;;;7.70;99.90;;;;;;5087747;28;20177;-52
2021/10/17 04:03:31;;;;;;;14.50;12.20;;;7.70;99.90;;;;;;5088297;28;20577;-48
2021/10/17 04:05:57;;;;;;;14.37;11.23;;;7.70;99.90;;;;;;5086502;28;20645;-52
2021/10/17 04:08:22;;;;;;;17.80;11.57;;;7.70;99.90;;;;;;5088265;28;20662;-52
2021/10/17 04:10:49;;;;;;;15.53;12.47;;;7.80;99.90;;;;;;5088488;28;20196;-49
2021/10/17 04:13:14;;;;;;;12.30;10.77;;;7.80;99.90;;;;;;5088491;28;20212;-50
2021/10/17 04:15:40;;;;;;;12.43;10.83;;;7.70;99.90;;;;;;5088064;28;20449;-50
2021/10/17 04:18:06;;;;;;;15.27;11.70;;;7.80;99.90;;;;;;5087092;28;20184;-49
2021/10/17 04:20:31;;;;;;;13.60;11.27;;;7.80;99.90;;;;;;5084952;28;20599;-53
2021/10/17 04:22:58;;;;;;;15.00;11.83;;;7.80;99.90;;;;;;5089442;28;20192;-48
2021/10/17 04:25:23;;;;;;;17.00;11.30;;;7.90;99.90;;;;;;5086173;28;20548;-51
2021/10/17 04:27:49;;;;;;;12.90;11.47;;;7.90;99.90;;;;;;5087262;28;20431;-49
2021/10/17 04:30:15;;;;;;;15.33;11.70;;;7.80;99.90;;;;;;5085528;28;20181;-54
2021/10/17 04:32:41;;;;;;;13.70;11.50;;;7.80;99.90;;;;;;5089869;28;21236;-48
2021/10/17 04:35:10;;;;;;;13.53;11.20;;;7.80;99.90;;;;;;5092865;28;20426;-48
2021/10/17 04:37:36;;;;;;;14.20;11.57;;;7.80;99.90;;;;;;5081863;28;20434;-51
2021/10/17 04:40:04;;;;;;;15.20;12.50;;;7.80;99.90;;;;;;5088206;28;20795;-57
2021/10/17 04:42:30;;;;;;;12.47;10.40;;;7.80;99.90;;;;;;5092270;28;20443;-52
2021/10/17 04:44:55;;;;;;;15.00;11.97;;;7.80;99.90;;;;;;5092195;28;20994;-61
2021/10/17 04:47:21;;;;;;;15.17;12.00;;;7.80;99.90;;;;;;5090523;28;20710;-54
2021/10/17 04:49:46;;;;;;;18.50;12.50;;;7.80;99.90;;;;;;5087240;28;20607;-52
2021/10/17 04:52:12;;;;;;;17.87;13.00;;;7.80;99.90;;;;;;5090054;28;20281;-51
2021/10/17 04:54:37;;;;;;;14.70;12.47;;;7.90;99.90;;;;;;5090017;28;20250;-59
2021/10/17 04:57:03;;;;;;;14.20;11.20;;;7.90;99.90;;;;;;5090358;28;20187;-49
2021/10/17 04:59:29;;;;;;;15.23;11.87;;;7.90;99.90;;;;;;5079124;28;20187;-49
2021/10/17 05:01:54;;;;;;;17.30;12.40;;;7.90;99.90;;;;;;5082774;28;20207;-48
2021/10/17 05:04:20;;;;;;;16.87;12.30;;;7.90;99.90;;;;;;5091515;28;20727;-51
2021/10/17 05:06:45;;;;;;;14.67;12.23;;;7.90;99.90;;;;;;5090802;28;20177;-51
2021/10/17 05:09:11;;;;;;;15.17;12.60;;;7.90;99.90;;;;;;5089635;28;20192;-49
2021/10/17 05:11:37;;;;;;;16.57;12.30;;;7.90;99.90;;;;;;5091260;28;20555;-53
2021/10/17 05:14:02;;;;;;;14.73;12.20;;;7.90;99.90;;;;;;5087201;28;20250;-49
2021/10/17 05:16:28;;;;;;;16.63;12.10;;;8.00;99.90;;;;;;5089582;28;20220;-49
2021/10/17 05:18:53;;;;;;;14.00;11.53;;;8.00;99.90;;;;;;5087046;28;20258;-47
2021/10/17 05:21:19;;;;;;;16.43;11.57;;;8.00;99.90;;;;;;5090964;28;20669;-50
2021/10/17 05:23:45;;;;;;;14.83;11.90;;;8.00;99.90;;;;;;5090804;28;20220;-52
2021/10/17 05:26:10;;;;;;;13.80;11.40;;;8.00;99.90;;;;;;5091192;28;20177;-48
2021/10/17 05:28:36;;;;;;;16.33;12.77;;;7.90;99.90;;;;;;5090852;28;20274;-49
2021/10/17 05:31:03;;;;;;;13.10;10.97;;;7.90;99.90;;;;;;5091603;28;20621;-49
2021/10/17 05:33:30;;;;;;;15.83;11.47;;;7.90;99.90;;;;;;5089869;28;20250;-50
2021/10/17 05:35:56;;;;;;;14.17;11.20;;;7.90;99.90;;;;;;5081919;28;20933;-51
2021/10/17 05:38:21;;;;;;;15.00;11.80;;;7.90;99.90;;;;;;5085636;28;20427;-51
2021/10/17 05:40:47;;;;;;;14.10;11.43;;;7.90;99.90;;;;;;5091571;28;20431;-52
2021/10/17 05:43:13;;;;;;;20.37;12.70;;;7.90;99.90;;;;;;5089604;28;20734;-52
2021/10/17 05:45:38;;;;;;;12.70;11.03;;;7.90;99.90;;;;;;5091095;28;20203;-54
2021/10/17 05:48:04;;;;;;;13.90;11.20;;;7.90;99.90;;;;;;5090175;28;20188;-51
2021/10/17 05:50:30;;;;;;;13.73;12.27;;;7.90;99.90;;;;;;5088370;28;20232;-52
2021/10/17 05:52:55;;;;;;;16.73;12.93;;;8.00;99.90;;;;;;5090731;28;20553;-52
2021/10/17 05:55:21;;;;;;;14.50;11.30;;;8.10;99.90;;;;;;5088804;28;20394;-53
2021/10/17 05:57:46;;;;;;;15.63;11.93;;;8.10;99.90;;;;;;5090911;28;20177;-53
2021/10/17 06:00:12;;;;;;;16.27;11.90;;;8.10;99.90;;;;;;5090745;28;20274;-47
2021/10/17 06:02:38;;;;;;;17.00;12.33;;;8.10;99.90;;;;;;5089818;28;20187;-50
2021/10/17 06:05:04;;;;;;;14.93;12.30;;;8.10;99.90;;;;;;5089124;28;20426;-49
2021/10/17 06:07:30;;;;;;;14.13;12.10;;;8.10;99.90;;;;;;5079183;28;20185;-52
2021/10/17 06:09:55;;;;;;;17.40;13.27;;;8.00;99.90;;;;;;5074754;28;20767;-50
2021/10/17 06:12:21;;;;;;;16.90;13.20;;;8.10;99.90;;;;;;5080470;28;20295;-49
2021/10/17 06:14:46;;;;;;;16.70;13.40;;;8.10;99.90;;;;;;5090739;28;20746;-50
2021/10/17 06:17:12;;;;;;;16.70;12.77;;;8.20;99.90;;;;;;5089601;28;20178;-49
2021/10/17 06:19:37;;;;;;;20.13;13.93;;;8.20;99.90;;;;;;5084213;28;20185;-49
2021/10/17 06:22:03;;;;;;;15.93;12.23;;;8.20;99.90;;;;;;5085140;28;20185;-54
2021/10/17 06:24:33;;;;;;;18.00;13.00;;;8.20;99.90;;;;;;5079783;28;20181;-50
2021/10/17 06:26:58;;;;;;;16.10;14.00;;;8.30;99.90;;;;;;5089742;28;20639;-51
2021/10/17 06:29:24;;;;;;;15.10;12.87;;;8.30;99.90;;;;;;5079264;28;20439;-52
2021/10/17 06:31:50;;;;;;;17.90;14.07;;;8.30;99.90;;;;;;5087389;28;20177;-52
2021/10/17 06:34:16;;;;;;;16.70;13.90;;;8.30;99.90;;;;;;5090167;28;20181;-47
2021/10/17 06:36:41;;;;;;;16.30;12.97;;;8.30;99.90;;;;;;5087811;28;20461;-49
2021/10/17 06:39:07;;;;;;;18.03;13.90;;;8.30;99.90;;;;;;5089977;28;20655;-48
2021/10/17 06:41:32;;;;;;;15.20;12.80;;;8.40;99.90;;;;;;5089560;28;20259;-63
2021/10/17 06:43:58;;;;;;;17.63;13.60;;;8.50;99.90;;;;;;5088629;28;20212;-51
2021/10/17 06:46:24;;;;;;;17.30;13.10;;;8.60;99.90;;;;;;5083851;28;20182;-48
2021/10/17 06:48:50;;;;;;;18.70;13.53;;;8.60;99.90;;;;;;5079096;28;20477;-51
2021/10/17 06:51:15;;;;;;;17.13;13.37;;;8.70;99.90;;;;;;5088535;28;20227;-52
2021/10/17 06:53:41;;;;;;;15.70;13.87;;;8.70;99.90;;;;;;5086452;28;20227;-48
2021/10/17 06:56:07;;;;;;;20.10;14.10;;;8.70;99.90;;;;;;5088795;28;20184;-50
2021/10/17 06:58:33;;;;;;;18.17;14.60;;;8.70;99.90;;;;;;5088859;28;20185;-51
2021/10/17 07:00:58;;;;;;;18.33;14.40;;;8.70;99.90;;;;;;5087135;28;20476;-57
2021/10/17 07:03:24;;;;;;;17.73;13.83;;;8.80;99.90;;;;;;5087022;28;20197;-53
2021/10/17 07:05:49;;;;;;;16.57;13.33;;;8.90;99.90;;;;;;5089447;28;20189;-51
2021/10/17 07:08:15;;;;;;;17.40;13.37;;;9.00;99.90;;;;;;5088747;28;20177;-49
2021/10/17 07:10:40;;;;;;;16.00;13.07;;;9.00;99.90;;;;;;5089045;28;20181;-52
2021/10/17 07:13:06;;;;;;;22.70;15.67;;;9.10;99.90;;;;;;5089400;28;20205;-50
2021/10/17 07:15:31;;;;;;;17.97;14.10;;;9.20;99.90;;;;;;5082469;28;20639;-52
2021/10/17 07:17:57;;;;;;;18.20;14.97;;;9.20;99.90;;;;;;5085525;28;20314;-48
2021/10/17 07:20:23;;;;;;;15.57;12.70;;;9.30;99.90;;;;;;5086953;28;20267;-47
2021/10/17 07:22:48;;;;;;;19.30;12.73;;;9.50;99.90;;;;;;5082721;28;20192;-48
2021/10/17 07:25:16;;;;;;;16.60;13.63;;;9.50;99.90;;;;;;5081241;28;20181;-48
2021/10/17 07:27:42;;;;;;;19.20;13.90;;;9.50;99.90;;;;;;5087167;28;20204;-53
2021/10/17 07:30:08;;;;;;;19.00;13.20;;;9.40;99.90;;;;;;5088331;28;20545;-48
2021/10/17 07:32:33;;;;;;;16.90;13.87;;;9.50;99.90;;;;;;5089357;28;21031;-54
2021/10/17 07:34:59;;;;;;;15.60;13.23;;;9.50;99.90;;;;;;5088495;28;20491;-51
2021/10/17 07:37:24;;;;;;;17.57;13.97;;;9.60;99.90;;;;;;5087821;28;20188;-48
2021/10/17 07:39:50;;;;;;;18.00;13.17;;;9.60;99.90;;;;;;5089271;28;20173;-52
2021/10/17 07:42:15;;;;;;;14.50;13.00;;;9.60;99.90;;;;;;5083963;28;20186;-50
2021/10/17 07:44:41;;;;;;;17.10;13.40;;;9.60;99.90;;;;;;5085597;28;20211;-48
2021/10/17 07:47:07;;;;;;;18.53;14.70;;;9.70;99.90;;;;;;5089011;28;20213;-49
2021/10/17 07:49:32;;;;;;;18.30;13.97;;;9.80;99.90;;;;;;5086640;28;20227;-54
2021/10/17 07:51:58;;;;;;;17.93;13.40;;;9.80;99.90;;;;;;5075597;28;20289;-53
2021/10/17 07:54:23;;;;;;;17.67;13.80;;;10.00;99.90;;;;;;5076066;28;20178;-50
2021/10/17 07:56:49;;;;;;;18.50;12.90;;;10.00;99.90;;;;;;5083724;28;20184;-51
2021/10/17 07:59:15;;;;;;;13.93;12.50;;;10.00;99.90;;;;;;5079599;28;20170;-49
2021/10/17 08:01:40;;;;;;;17.10;13.30;;;10.00;99.90;;;;;;5083381;28;20181;-52
2021/10/17 08:04:06;;;;;;;17.50;13.67;;;10.00;99.90;;;;;;5089012;28;20184;-48
2021/10/17 08:06:31;;;;;;;14.03;11.77;;;10.00;99.90;;;;;;5078239;28;20263;-52
2021/10/17 08:08:57;;;;;;;16.53;13.30;;;10.00;99.90;;;;;;5081321;28;20273;-50
2021/10/17 08:11:22;;;;;;;14.77;12.77;;;10.10;99.90;;;;;;5082071;28;20189;-50
2021/10/17 08:13:48;;;;;;;14.90;12.93;;;10.20;99.90;;;;;;5077900;28;20245;-52
2021/10/17 08:16:14;;;;;;;15.00;12.70;;;10.30;99.90;;;;;;5075366;28;20572;-51
2021/10/17 08:18:40;;;;;;;17.07;13.10;;;10.40;99.90;;;;;;5077454;28;20177;-52
2021/10/17 08:21:06;;;;;;;16.57;13.33;;;10.50;99.90;;;;;;5076590;28;20974;-52
2021/10/17 08:23:31;;;;;;;13.87;12.10;;;10.60;99.90;;;;;;5077285;28;20217;-50
2021/10/17 08:25:57;;;;;;;14.80;12.63;;;10.70;99.90;;;;;;5079580;28;20252;-56
2021/10/17 08:28:23;;;;;;;16.10;12.83;;;10.80;99.90;;;;;;5078253;28;20222;-52
2021/10/17 08:30:50;;;;;;;14.70;12.17;;;10.70;99.90;;;;;;5078978;28;20197;-48
2021/10/17 08:33:16;;;;;;;14.17;11.70;;;10.80;99.90;;;;;;5079727;28;20956;-48
2021/10/17 08:35:42;;;;;;;12.43;11.13;;;10.90;99.90;;;;;;5078892;28;20439;-51
2021/10/17 08:38:08;;;;;;;16.10;11.97;;;11.00;99.90;;;;;;5079305;28;20505;-49
2021/10/17 08:40:34;;;;;;;12.83;11.00;;;11.10;99.90;;;;;;5086832;28;20434;-50
2021/10/17 08:42:59;;;;;;;13.50;10.83;;;11.20;99.90;;;;;;5083449;28;20173;-49
2021/10/17 08:45:25;;;;;;;14.23;11.50;;;11.20;99.90;;;;;;5078681;28;20557;-51
2021/10/17 08:47:52;;;;;;;14.00;11.40;;;11.10;99.90;;;;;;5081701;28;20209;-48
2021/10/17 08:50:18;;;;;;;14.63;12.23;;;11.10;99.90;;;;;;5076680;28;20472;-49
2021/10/17 08:52:45;;;;;;;14.27;12.00;;;11.20;99.90;;;;;;5086630;28;20451;-50
2021/10/17 08:55:12;;;;;;;12.73;11.43;;;11.20;99.90;;;;;;5084077;28;20420;-49
2021/10/17 08:57:38;;;;;;;12.23;10.90;;;11.30;99.90;;;;;;5072321;28;20436;-60
2021/10/17 09:00:25;;;;;;;13.50;11.83;;;11.40;99.90;;;;;;5086389;28;20419;-62
2021/10/17 09:02:51;;;;;;;13.10;11.30;;;11.50;99.90;;;;;;5085354;28;20415;-50
2021/10/17 09:05:17;;;;;;;13.70;10.73;;;12.10;99.90;;;;;;5078534;28;20414;-54
2021/10/17 09:07:51;;;;;;;12.37;11.07;;;12.70;99.90;;;;;;5079216;28;20442;-53
2021/10/17 09:10:17;;;;;;;10.60;9.53;;;13.10;99.90;;;;;;5073559;28;20627;-51
2021/10/17 09:12:45;;;;;;;12.27;10.20;;;13.80;99.90;;;;;;5082442;28;20452;-53
2021/10/17 09:15:29;;;;;;;13.33;10.73;;;14.70;99.90;;;;;;5072745;28;21009;-52
2021/10/17 09:18:12;;;;;;;11.23;10.10;;;15.20;99.90;;;;;;5084808;28;20415;-55
2021/10/17 09:20:47;;;;;;;12.43;11.23;;;15.50;99.90;;;;;;5084673;28;20925;-51
2021/10/17 09:23:39;;;;;;;11.67;10.57;;;16.00;99.90;;;;;;5086271;28;20432;-50
2021/10/17 09:26:14;;;;;;;11.40;10.40;;;17.10;96.70;;;;;;5075563;28;20438;-53
2021/10/17 09:28:40;;;;;;;11.03;10.00;;;18.00;95.60;;;;;;5078815;28;20904;-50
2021/10/17 09:31:11;;;;;;;11.20;10.20;;;18.40;92.60;;;;;;5085320;28;20442;-58
2021/10/17 09:33:52;;;;;;;10.43;9.57;;;18.70;90.70;;;;;;5088404;28;20312;-50
2021/10/17 09:36:32;;;;;;;9.90;9.10;;;19.40;90.20;;;;;;5084114;28;20426;-48
2021/10/17 09:41:36;;;;;;;10.70;9.60;;;19.70;85.30;;;;;;5085588;28;20488;-50
2021/10/17 09:44:04;;;;;;;9.53;8.40;;;20.20;80.50;;;;;;5088905;28;20416;-51
2021/10/17 09:46:30;;;;;;;8.77;7.90;;;20.90;73.30;;;;;;5086865;28;20427;-50
2021/10/17 09:48:56;;;;;;;9.20;8.40;;;21.40;66.30;;;;;;5081338;28;20434;-50
2021/10/17 09:51:29;;;;;;;8.00;7.20;;;22.00;66.50;;;;;;5089107;28;20566;-49
2021/10/17 09:53:57;;;;;;;7.87;7.17;;;22.00;59.70;;;;;;5080860;28;20192;-54
2021/10/17 09:56:33;;;;;;;6.13;5.63;;;21.80;60.40;;;;;;5090714;28;20409;-52
2021/10/17 09:59:00;;;;;;;6.80;6.40;;;21.60;60.60;;;;;;5089567;28;20786;-53
2021/10/17 10:01:28;;;;;;;6.43;6.03;;;21.70;58.30;;;;;;5087864;28;20525;-60
2021/10/17 10:03:55;;;;;;;5.50;5.10;;;21.40;56.70;;;;;;5086889;28;20442;-51
2021/10/17 10:06:22;;;;;;;5.37;4.77;;;22.10;55.90;;;;;;5091516;28;20920;-50
2021/10/17 10:08:49;;;;;;;5.20;4.80;;;22.30;50.30;;;;;;5086957;28;20944;-49
2021/10/17 10:11:21;;;;;;;4.87;4.50;;;21.90;43.60;;;;;;5091020;28;20501;-50
2021/10/17 10:13:50;;;;;;;5.57;5.07;;;21.60;42.90;;;;;;5089995;28;20495;-50
2021/10/17 10:16:19;;;;;;;5.23;4.83;;;21.60;43.60;;;;;;5090052;28;20431;-50
2021/10/17 10:18:46;;;;;;;5.27;4.97;;;21.60;46.40;;;;;;5090467;28;20428;-51
2021/10/17 10:21:12;;;;;;;4.40;3.87;;;22.30;46.30;;;;;;5089598;28;20415;-50
2021/10/17 10:23:39;;;;;;;5.43;4.90;;;22.70;40.30;;;;;;5086896;28;20469;-54
2021/10/17 10:26:05;;;;;;;5.00;4.70;;;22.70;39.50;;;;;;5090504;28;20422;-50
2021/10/17 10:28:31;;;;;;;5.50;5.00;;;22.10;40.50;;;;;;5078045;28;20428;-51
2021/10/17 10:30:56;;;;;;;4.90;4.60;;;22.40;42.10;;;;;;5073203;28;20430;-49
2021/10/17 10:33:22;;;;;;;5.13;4.53;;;22.00;39.60;;;;;;5069354;28;20463;-47
2021/10/17 10:36:17;;;;;;;5.10;4.63;;;21.70;37.90;;;;;;5078760;28;20186;-54
2021/10/17 10:38:52;;;;;;;5.57;5.07;;;21.00;38.70;;;;;;5069954;28;20189;-49
2021/10/17 10:41:26;;;;;;;5.70;5.40;;;19.70;40.80;;;;;;5083514;28;21104;-56
2021/10/17 10:43:51;;;;;;;5.07;4.67;;;19.20;42.00;;;;;;5082566;28;20831;-49
2021/10/17 10:46:37;;;;;;;5.13;4.83;;;19.00;42.50;;;;;;5077286;28;20432;-48
2021/10/17 10:49:03;;;;;;;6.97;6.20;;;19.60;42.10;;;;;;5077524;28;20196;-47
2021/10/17 10:51:46;;;;;;;4.90;4.60;;;19.80;41.70;;;;;;5079210;28;20482;-52
2021/10/17 10:54:21;;;;;;;5.47;5.00;;;20.50;40.30;;;;;;5076298;28;20212;-50
2021/10/17 10:56:49;;;;;;;5.30;5.00;;;21.30;40.70;;;;;;5069982;28;21049;-49
2021/10/17 10:59:17;;;;;;;5.30;4.90;;;21.40;41.50;;;;;;5076904;28;20416;-50
2021/10/17 11:02:10;;;;;;;5.90;5.50;;;21.00;40.90;;;;;;5074716;28;20534;-48
2021/10/17 11:04:42;;;;;;;4.90;4.60;;;20.50;40.70;;;;;;5073881;28;20403;-48
2021/10/17 11:07:27;;;;;;;5.27;4.77;;;19.90;42.30;;;;;;5068342;28;20412;-50
2021/10/17 11:09:54;;;;;;;5.43;5.13;;;19.60;44.60;;;;;;5073321;28;20442;-50
2021/10/17 11:12:44;;;;;;;5.93;5.53;;;20.00;43.80;;;;;;5070953;28;20508;-47
2021/10/17 11:15:12;;;;;;;5.70;5.30;;;20.40;43.00;;;;;;5068689;28;20487;-49
2021/10/17 11:17:46;;;;;;;5.23;4.87;;;20.30;44.10;;;;;;5071291;28;20527;-50
2021/10/17 11:20:17;;;;;;;5.70;5.30;;;20.20;44.80;;;;;;5069158;28;20428;-51
2021/10/17 11:22:42;;;;;;;4.93;4.63;;;20.50;42.50;;;;;;5070623;28;20445;-51
2021/10/17 11:25:14;;;;;;;5.57;5.27;;;20.60;41.10;;;;;;5077175;28;20932;-48
2021/10/17 11:27:40;;;;;;;5.80;5.40;;;20.60;41.00;;;;;;5084368;28;20235;-52
2021/10/17 11:30:17;;;;;;;6.13;5.63;;;21.30;40.10;;;;;;5088063;28;20407;-48
2021/10/17 11:32:43;;;;;;;5.53;4.23;;;21.20;41.20;;;;;;5087467;28;20458;-51
2021/10/17 11:35:08;;;;;;;5.67;5.27;;;21.00;39.60;;;;;;5086876;28;20429;-52
2021/10/17 11:37:35;;;;;;;5.80;5.17;;;21.60;41.10;;;;;;5087337;28;20556;-51
2021/10/17 11:40:10;;;;;;;5.50;5.00;;;21.90;37.80;;;;;;5077623;28;20645;-48
2021/10/17 11:42:48;;;;;;;5.10;4.70;;;21.80;42.10;;;;;;5085945;28;20617;-53
2021/10/17 11:45:22;;;;;;;4.67;4.33;;;22.30;41.30;;;;;;5077073;28;20873;-52
2021/10/17 11:47:49;;;;;;;5.10;4.80;;;22.80;37.30;;;;;;5085820;28;20426;-49
2021/10/17 11:50:19;;;;;;;5.23;4.77;;;23.20;36.40;;;;;;5086274;28;20458;-59
2021/10/17 11:52:51;;;;;;;4.70;4.40;;;23.50;36.60;;;;;;5085512;28;20470;-49
2021/10/17 11:55:44;;;;;;;4.97;4.67;;;23.70;32.70;;;;;;5085494;28;20422;-48
2021/10/17 11:58:14;;;;;;;5.00;4.70;;;23.60;35.80;;;;;;5085092;28;20512;-52
2021/10/17 12:00:41;;;;;;;5.60;5.10;;;24.10;36.90;;;;;;5084913;28;20417;-49
2021/10/17 12:03:06;;;;;;;5.20;4.80;;;24.70;34.60;;;;;;5088044;28;20420;-51
2021/10/17 12:05:32;;;;;;;4.77;4.47;;;24.50;36.00;;;;;;5084330;28;20896;-49
2021/10/17 12:07:58;;;;;;;4.90;4.60;;;23.90;36.70;;;;;;5083204;28;20189;-49
2021/10/17 12:10:31;;;;;;;5.70;5.30;;;23.30;37.40;;;;;;5078151;28;20209;-50
2021/10/17 12:13:01;;;;;;;5.43;4.77;;;22.40;39.60;;;;;;5081810;28;20991;-59
2021/10/17 12:15:29;;;;;;;6.10;5.80;;;21.40;38.20;;;;;;5080074;28;20434;-50
2021/10/17 12:18:02;;;;;;;5.80;5.30;;;20.80;42.30;;;;;;5085414;28;20481;-52
2021/10/17 12:20:30;;;;;;;5.53;5.10;;;20.90;42.70;;;;;;5084208;28;20449;-55
2021/10/17 12:22:57;;;;;;;6.20;5.70;;;21.70;41.20;;;;;;5077313;28;20422;-48
2021/10/17 12:25:22;;;;;;;6.40;5.80;;;21.80;41.10;;;;;;5077758;28;20983;-50
2021/10/17 12:27:49;;;;;;;5.07;4.77;;;21.70;40.80;;;;;;5078435;28;20456;-50
2021/10/17 12:30:33;;;;;;;5.47;5.17;;;21.70;41.90;;;;;;5080676;28;20185;-51
2021/10/17 12:32:59;;;;;;;4.80;4.43;;;21.70;39.90;;;;;;5084685;28;21159;-49
2021/10/17 12:35:32;;;;;;;6.23;5.73;;;21.10;38.00;;;;;;5087934;28;20427;-56
2021/10/17 12:38:10;;;;;;;6.07;5.67;;;20.30;38.60;;;;;;5084507;28;20427;-50
2021/10/17 12:41:06;;;;;;;5.30;5.00;;;19.40;41.60;;;;;;5082887;28;20410;-48